Time;durP1;ratioP1;P1;durP2;ratioP2;P2;SDS_P1;SDS_P2;PMS_P1;PMS_P2;Temp;Humidity;BMP_temperature;BMP_pressure;BME280_temperature;BME280_humidity;BME280_pressure;Samples;Min_cycle;Max_cycle;Signal;HPM_P1;HPM_P2
2022/12/20 00:02:03;;;;;;;;;;;0.20;99.90;;;;;;5066214;28;19960;-70
2022/12/20 00:04:31;;;;;;;;;;;0.20;99.90;;;;;;5066198;28;19921;-71
2022/12/20 00:06:58;;;;;;;;;;;0.20;99.90;;;;;;5065534;28;19920;-69
2022/12/20 00:09:25;;;;;;;;;;;0.30;99.90;;;;;;5066125;28;19956;-68
2022/12/20 00:11:51;;;;;;;;;;;0.30;99.90;;;;;;5064938;28;19921;-69
2022/12/20 00:14:18;;;;;;;;;;;0.30;99.90;;;;;;5060020;28;19928;-69
2022/12/20 00:16:45;;;;;;;;;;;0.30;99.90;;;;;;5064580;28;19952;-69
2022/12/20 00:19:11;;;;;;;;;;;0.40;99.90;;;;;;5065609;28;19952;-69
2022/12/20 00:21:39;;;;;;;;;;;0.40;99.90;;;;;;5065907;28;19983;-69
2022/12/20 00:24:06;;;;;;;;;;;0.40;99.90;;;;;;5065741;28;19983;-69
2022/12/20 00:26:34;;;;;;;;;;;0.40;99.90;;;;;;5064927;28;19976;-68
2022/12/20 00:29:01;;;;;;;;;;;0.40;99.90;;;;;;5065645;28;19963;-69
2022/12/20 00:31:29;;;;;;;;;;;0.40;99.90;;;;;;5065480;28;20113;-69
2022/12/20 00:33:56;;;;;;;;;;;0.40;99.90;;;;;;5064543;28;20109;-69
2022/12/20 00:36:23;;;;;;;;;;;0.50;99.90;;;;;;5065041;28;19921;-69
2022/12/20 00:38:52;;;;;;;;;;;0.60;99.90;;;;;;5065476;28;19992;-69
2022/12/20 00:41:20;;;;;;;;;;;0.60;99.90;;;;;;5065509;28;19983;-69
2022/12/20 00:43:47;;;;;;;;;;;0.60;99.90;;;;;;5065476;28;19962;-70
2022/12/20 00:46:14;;;;;;;;;;;0.60;99.90;;;;;;5064803;28;19921;-69
2022/12/20 00:48:41;;;;;;;;;;;0.60;99.90;;;;;;5064994;28;19920;-68
2022/12/20 00:51:08;;;;;;;;;;;0.60;99.90;;;;;;5065514;28;19921;-69
2022/12/20 00:53:36;;;;;;;;;;;0.60;99.90;;;;;;5065073;28;19976;-69
2022/12/20 00:56:04;;;;;;;;;;;0.60;99.90;;;;;;5064702;28;19929;-69
2022/12/20 00:58:32;;;;;;;;;;;0.60;99.90;;;;;;5065095;28;19921;-69
2022/12/20 01:00:58;;;;;;;;;;;0.60;99.90;;;;;;5064913;28;19964;-69
2022/12/20 01:03:26;;;;;;;;;;;0.60;99.90;;;;;;5064824;28;19988;-69
2022/12/20 01:05:53;;;;;;;;;;;0.60;99.90;;;;;;5064693;28;19987;-69
2022/12/20 01:08:20;;;;;;;;;;;0.60;99.90;;;;;;5064397;28;19927;-69
2022/12/20 01:10:47;;;;;;;;;;;0.60;99.90;;;;;;5065013;28;19927;-69
2022/12/20 01:13:15;;;;;;;;;;;0.60;99.90;;;;;;5064984;28;19920;-69
2022/12/20 01:15:41;;;;;;;;;;;0.60;99.90;;;;;;5064606;28;19921;-70
2022/12/20 01:18:08;;;;;;;;;;;0.60;99.90;;;;;;5064256;28;19978;-69
2022/12/20 01:20:35;;;;;;;;;;;0.70;99.90;;;;;;5064954;28;19984;-69
2022/12/20 01:23:01;;;;;;;;;;;0.80;99.90;;;;;;5064733;28;19983;-69
2022/12/20 01:25:28;;;;;;;;;;;0.70;99.90;;;;;;5064489;28;19957;-68
2022/12/20 01:27:54;;;;;;;;;;;0.70;99.90;;;;;;5063975;28;19921;-69
2022/12/20 01:30:22;;;;;;;;;;;0.70;99.90;;;;;;5064631;28;19963;-69
2022/12/20 01:32:49;;;;;;;;;;;0.70;99.90;;;;;;5064568;28;19983;-69
2022/12/20 01:35:16;;;;;;;;;;;0.70;99.90;;;;;;5064169;28;19996;-68
2022/12/20 01:37:42;;;;;;;;;;;0.80;99.90;;;;;;5063749;28;19927;-69
2022/12/20 01:40:10;;;;;;;;;;;0.80;99.90;;;;;;5064434;28;19921;-69
2022/12/20 01:42:36;;;;;;;;;;;0.80;99.90;;;;;;5064269;28;19967;-69
2022/12/20 01:45:05;;;;;;;;;;;0.80;99.90;;;;;;5064087;28;19988;-69
2022/12/20 01:47:34;;;;;;;;;;;0.70;99.90;;;;;;5063562;28;19921;-69
2022/12/20 01:50:02;;;;;;;;;;;0.70;99.90;;;;;;5064267;28;19976;-69
2022/12/20 01:52:32;;;;;;;;;;;0.70;99.90;;;;;;5064265;28;20023;-70
2022/12/20 01:55:02;;;;;;;;;;;0.60;99.90;;;;;;5063710;28;20201;-68
2022/12/20 01:57:33;;;;;;;;;;;0.70;99.90;;;;;;5063494;28;19921;-69
2022/12/20 02:00:00;;;;;;;;;;;0.70;99.90;;;;;;5063045;28;19959;-69
2022/12/20 02:02:27;;;;;;;;;;;0.70;99.90;;;;;;5062508;28;19984;-71
2022/12/20 02:04:55;;;;;;;;;;;0.70;99.90;;;;;;5063201;28;19921;-69
2022/12/20 02:07:24;;;;;;;;;;;0.70;99.90;;;;;;5063316;28;19955;-69
2022/12/20 02:09:51;;;;;;;;;;;0.80;99.90;;;;;;5062584;28;19928;-69
2022/12/20 02:12:20;;;;;;;;;;;0.80;99.90;;;;;;5063959;28;19948;-69
2022/12/20 02:14:53;;;;;;;;;;;0.80;99.90;;;;;;5063415;28;19992;-69
2022/12/20 02:17:24;;;;;;;;;;;0.80;99.90;;;;;;5063227;28;19943;-69
2022/12/20 02:20:01;;;;;;;;;;;0.80;99.90;;;;;;5063357;28;20275;-69
2022/12/20 02:22:32;;;;;;;;;;;0.70;99.90;;;;;;5063696;28;19921;-68
2022/12/20 02:25:22;;;;;;;;;;;0.80;99.90;;;;;;5063508;28;19921;-69
2022/12/20 02:27:52;;;;;;;;;;;0.80;99.90;;;;;;5062616;28;20212;-69
2022/12/20 02:30:21;;;;;;;;;;;0.80;99.90;;;;;;5063281;28;19983;-68
2022/12/20 02:32:51;;;;;;;;;;;0.80;99.90;;;;;;5063451;28;20177;-69
2022/12/20 02:35:20;;;;;;;;;;;0.80;99.90;;;;;;5063195;28;19988;-69
2022/12/20 02:37:47;;;;;;;;;;;0.80;99.90;;;;;;5062873;28;19921;-69
2022/12/20 02:40:15;;;;;;;;;;;0.80;99.90;;;;;;5063415;28;19920;-69
2022/12/20 02:42:42;;;;;;;;;;;0.80;99.90;;;;;;5063205;28;19991;-69
2022/12/20 02:45:14;;;;;;;;;;;0.80;99.90;;;;;;5063129;28;20304;-69
2022/12/20 02:47:46;;;;;;;;;;;0.80;99.90;;;;;;5062530;28;20256;-68
2022/12/20 02:50:14;;;;;;;;;;;0.80;99.90;;;;;;5063306;28;19921;-68
2022/12/20 02:52:41;;;;;;;;;;;0.80;99.90;;;;;;5063301;28;20156;-69
2022/12/20 02:55:08;;;;;;;;;;;0.70;99.90;;;;;;5062961;28;19920;-69
2022/12/20 02:57:38;;;;;;;;;;;0.80;99.90;;;;;;5063898;28;20180;-69
2022/12/20 03:00:06;;;;;;;;;;;0.80;99.90;;;;;;5067156;28;19988;-68
2022/12/20 03:03:21;;;;;;;;;;;0.80;99.90;;;;;;5067169;28;20255;-69
2022/12/20 03:05:22;;;;;;;;;;;0.80;99.90;;;;;;5066992;28;19967;-68
2022/12/20 03:07:49;;;;;;;;;;;0.80;99.90;;;;;;5066628;28;19921;-68
2022/12/20 03:10:16;;;;;;;;;;;0.80;99.90;;;;;;5067287;28;19996;-69
2022/12/20 03:12:42;;;;;;;;;;;0.80;99.90;;;;;;5067014;28;19987;-69
2022/12/20 03:15:10;;;;;;;;;;;0.80;99.90;;;;;;5067102;28;19960;-68
2022/12/20 03:17:36;;;;;;;;;;;0.80;99.90;;;;;;5066367;28;19920;-69
2022/12/20 03:20:05;;;;;;;;;;;0.80;99.90;;;;;;5067114;28;19992;-69
2022/12/20 03:22:33;;;;;;;;;;;0.70;99.90;;;;;;5066826;28;19925;-68
2022/12/20 03:24:59;;;;;;;;;;;0.70;99.90;;;;;;5066917;28;19921;-69
2022/12/20 03:27:26;;;;;;;;;;;0.80;99.90;;;;;;5066011;28;20260;-68
2022/12/20 03:29:53;;;;;;;;;;;0.80;99.90;;;;;;5066625;28;19963;-68
2022/12/20 03:32:20;;;;;;;;;;;0.90;99.90;;;;;;5066869;28;19948;-68
2022/12/20 03:34:47;;;;;;;;;;;0.90;99.90;;;;;;5066738;28;19988;-68
2022/12/20 03:37:13;;;;;;;;;;;0.90;99.90;;;;;;5066012;28;19925;-69
2022/12/20 03:39:41;;;;;;;;;;;0.90;99.90;;;;;;5066515;28;19921;-69
2022/12/20 03:42:08;;;;;;;;;;;0.90;99.90;;;;;;5066832;28;19992;-69
2022/12/20 03:44:35;;;;;;;;;;;1.00;99.90;;;;;;5066751;28;19928;-68
2022/12/20 03:47:01;;;;;;;;;;;0.90;99.90;;;;;;5065968;28;19927;-69
2022/12/20 03:49:28;;;;;;;;;;;0.90;99.90;;;;;;5066551;28;20013;-69
2022/12/20 03:51:54;;;;;;;;;;;0.90;99.90;;;;;;5066470;28;19974;-69
2022/12/20 03:54:21;;;;;;;;;;;0.90;99.90;;;;;;5066114;28;19952;-69
2022/12/20 03:56:49;;;;;;;;;;;0.90;99.90;;;;;;5065718;28;19971;-68
2022/12/20 03:59:16;;;;;;;;;;;0.90;99.90;;;;;;5066290;28;19992;-69
2022/12/20 04:01:42;;;;;;;;;;;0.90;99.90;;;;;;5066671;28;19988;-69
2022/12/20 04:04:10;;;;;;;;;;;0.90;99.90;;;;;;5066780;28;19988;-69
2022/12/20 04:06:36;;;;;;;;;;;0.90;99.90;;;;;;5066221;28;19988;-69
2022/12/20 04:09:03;;;;;;;;;;;0.90;99.90;;;;;;5066536;28;19952;-69
2022/12/20 04:11:30;;;;;;;;;;;1.00;99.90;;;;;;5066164;28;19988;-69
2022/12/20 04:13:57;;;;;;;;;;;1.00;99.90;;;;;;5066132;28;20257;-68
2022/12/20 04:16:25;;;;;;;;;;;1.00;99.90;;;;;;5065072;28;19927;-69
2022/12/20 04:18:52;;;;;;;;;;;1.00;99.90;;;;;;5065772;28;19920;-68
2022/12/20 04:21:22;;;;;;;;;;;1.00;99.90;;;;;;5065978;28;19992;-69
2022/12/20 04:23:48;;;;;;;;;;;1.00;99.90;;;;;;5065754;28;19983;-69
2022/12/20 04:26:15;;;;;;;;;;;1.00;99.90;;;;;;5065277;28;19988;-69
2022/12/20 04:28:42;;;;;;;;;;;1.00;99.90;;;;;;5065552;28;20180;-70
2022/12/20 04:31:10;;;;;;;;;;;1.00;99.90;;;;;;5065802;28;19943;-70
2022/12/20 04:33:37;;;;;;;;;;;1.10;99.90;;;;;;5065753;28;19921;-69
2022/12/20 04:36:03;;;;;;;;;;;1.10;99.90;;;;;;5064813;28;20204;-69
2022/12/20 04:38:30;;;;;;;;;;;1.10;99.90;;;;;;5065496;28;19979;-69
2022/12/20 04:40:57;;;;;;;;;;;1.20;99.90;;;;;;5065351;28;19921;-69
2022/12/20 04:43:24;;;;;;;;;;;1.10;99.90;;;;;;5065301;28;19920;-69
2022/12/20 04:45:52;;;;;;;;;;;1.20;99.90;;;;;;5065197;28;20115;-68
2022/12/20 04:48:20;;;;;;;;;;;1.10;99.90;;;;;;5064832;28;20228;-69
2022/12/20 04:50:48;;;;;;;;;;;1.20;99.90;;;;;;5065135;28;19927;-69
2022/12/20 04:55:59;;;;;;;;;;;1.20;99.90;;;;;;5064617;28;19927;-69
2022/12/20 04:58:26;;;;;;;;;;;1.20;99.90;;;;;;5065073;28;19959;-68
2022/12/20 05:00:52;;;;;;;;;;;1.20;99.90;;;;;;5065289;28;19951;-69
2022/12/20 05:03:21;;;;;;;;;;;1.30;99.90;;;;;;5065172;28;19948;-71
2022/12/20 05:05:48;;;;;;;;;;;1.40;99.90;;;;;;5064781;28;19988;-69
2022/12/20 05:08:14;;;;;;;;;;;1.40;99.90;;;;;;5064745;28;19948;-69
2022/12/20 05:10:42;;;;;;;;;;;1.40;99.90;;;;;;5065041;28;19988;-69
2022/12/20 05:13:08;;;;;;;;;;;1.30;99.90;;;;;;5065071;28;19999;-69
2022/12/20 05:15:35;;;;;;;;;;;1.30;99.90;;;;;;5064750;28;19987;-69
2022/12/20 05:18:02;;;;;;;;;;;1.30;99.90;;;;;;5064173;28;19921;-69
2022/12/20 05:20:30;;;;;;;;;;;1.30;99.90;;;;;;5064434;28;19959;-69
2022/12/20 05:28:30;;;;;;;;;;;1.30;99.90;;;;;;5063977;28;19952;-69
2022/12/20 05:30:57;;;;;;;;;;;1.30;99.90;;;;;;5064836;28;19921;-69
2022/12/20 05:33:23;;;;;;;;;;;1.30;99.90;;;;;;5064641;28;19927;-68
2022/12/20 05:35:52;;;;;;;;;;;1.30;99.90;;;;;;5064075;28;19960;-69
2022/12/20 05:38:19;;;;;;;;;;;1.30;99.90;;;;;;5064209;28;20060;-69
2022/12/20 05:40:47;;;;;;;;;;;1.40;99.90;;;;;;5064586;28;20181;-69
2022/12/20 05:43:14;;;;;;;;;;;1.40;99.90;;;;;;5064434;28;20046;-69
2022/12/20 05:45:40;;;;;;;;;;;1.40;99.90;;;;;;5063795;28;20115;-69
2022/12/20 05:48:07;;;;;;;;;;;1.50;99.90;;;;;;5063495;28;19945;-68
2022/12/20 05:50:34;;;;;;;;;;;1.50;99.90;;;;;;5063993;28;19956;-69
2022/12/20 05:53:02;;;;;;;;;;;1.40;99.90;;;;;;5064277;28;19928;-69
2022/12/20 05:55:29;;;;;;;;;;;1.40;99.90;;;;;;5064031;28;19936;-69
2022/12/20 05:57:56;;;;;;;;;;;1.50;99.90;;;;;;5063508;28;19980;-69
2022/12/20 06:00:23;;;;;;;;;;;1.50;99.90;;;;;;5063943;28;19984;-69
2022/12/20 06:02:49;;;;;;;;;;;1.50;99.90;;;;;;5063834;28;19991;-68
2022/12/20 06:05:16;;;;;;;;;;;1.50;99.90;;;;;;5063931;28;19957;-68
2022/12/20 06:07:42;;;;;;;;;;;1.50;99.90;;;;;;5063343;28;19952;-69
2022/12/20 06:10:11;;;;;;;;;;;1.60;99.90;;;;;;5063673;28;19963;-69
2022/12/20 06:12:38;;;;;;;;;;;1.60;99.90;;;;;;5063663;28;20259;-69
2022/12/20 06:15:05;;;;;;;;;;;1.70;99.90;;;;;;5061152;28;19959;-69
2022/12/20 06:17:31;;;;;;;;;;;1.70;99.90;;;;;;5062953;28;20181;-68
2022/12/20 06:19:58;;;;;;;;;;;1.60;99.90;;;;;;5063436;28;19956;-69
2022/12/20 06:22:25;;;;;;;;;;;1.60;99.90;;;;;;5063666;28;19963;-68
2022/12/20 06:24:53;;;;;;;;;;;1.70;99.90;;;;;;5061162;28;19920;-69
2022/12/20 06:27:21;;;;;;;;;;;1.70;99.90;;;;;;5062991;28;20014;-69
2022/12/20 06:29:50;;;;;;;;;;;1.70;99.90;;;;;;5063414;28;19921;-67
2022/12/20 06:32:17;;;;;;;;;;;1.70;99.90;;;;;;5062555;28;19921;-68
2022/12/20 06:34:44;;;;;;;;;;;1.70;99.90;;;;;;5063575;28;19983;-68
2022/12/20 06:37:10;;;;;;;;;;;1.70;99.90;;;;;;5062871;28;19920;-68
2022/12/20 06:39:37;;;;;;;;;;;1.70;99.90;;;;;;5063472;28;19975;-68
2022/12/20 06:42:04;;;;;;;;;;;1.70;99.90;;;;;;5063331;28;19963;-68
2022/12/20 06:44:32;;;;;;;;;;;1.70;99.90;;;;;;5063417;28;19988;-68
2022/12/20 06:46:58;;;;;;;;;;;1.70;99.90;;;;;;5062712;28;19988;-68
2022/12/20 06:49:25;;;;;;;;;;;1.70;99.90;;;;;;5063196;28;19928;-68
2022/12/20 06:51:52;;;;;;;;;;;1.60;99.90;;;;;;5063433;28;19927;-68
2022/12/20 06:54:18;;;;;;;;;;;1.60;99.90;;;;;;5063065;28;19963;-68
2022/12/20 06:56:45;;;;;;;;;;;1.60;99.90;;;;;;5062336;28;20251;-68
2022/12/20 06:59:12;;;;;;;;;;;1.60;99.90;;;;;;5063134;28;19956;-68
2022/12/20 07:01:39;;;;;;;;;;;1.70;99.90;;;;;;5062766;28;19984;-68
2022/12/20 07:04:06;;;;;;;;;;;1.80;99.90;;;;;;5054186;28;19921;-69
2022/12/20 07:06:33;;;;;;;;;;;1.90;99.90;;;;;;5060610;28;19921;-68
2022/12/20 07:08:59;;;;;;;;;;;1.90;99.90;;;;;;5042777;28;20201;-68
2022/12/20 07:11:26;;;;;;;;;;;1.80;99.90;;;;;;5056494;28;19963;-68
2022/12/20 07:13:55;;;;;;;;;;;1.90;99.90;;;;;;5062881;28;19952;-68
2022/12/20 07:16:21;;;;;;;;;;;1.90;99.90;;;;;;5062360;28;19921;-68
2022/12/20 07:18:51;;;;;;;;;;;2.00;99.90;;;;;;5062478;28;20009;-68
2022/12/20 07:21:18;;;;;;;;;;;2.10;99.90;;;;;;5062481;28;19944;-68
2022/12/20 07:23:45;;;;;;;;;;;2.00;99.90;;;;;;5062919;28;19927;-68
2022/12/20 07:26:11;;;;;;;;;;;2.00;99.90;;;;;;5062360;28;19920;-69
2022/12/20 07:28:38;;;;;;;;;;;1.90;99.90;;;;;;5062893;28;19921;-68
2022/12/20 07:31:05;;;;;;;;;;;1.90;99.90;;;;;;5061276;28;20276;-69
2022/12/20 07:33:32;;;;;;;;;;;1.90;99.90;;;;;;5056796;28;19984;-69
2022/12/20 07:36:01;;;;;;;;;;;1.90;99.90;;;;;;5062634;28;20133;-70
2022/12/20 07:38:29;;;;;;;;;;;2.00;99.90;;;;;;5062602;28;19987;-68
2022/12/20 07:40:55;;;;;;;;;;;1.90;99.90;;;;;;5062942;28;20387;-69
2022/12/20 07:43:22;;;;;;;;;;;1.90;99.90;;;;;;5063353;28;20008;-68
2022/12/20 07:45:48;;;;;;;;;;;2.00;99.90;;;;;;5066067;28;20246;-68
2022/12/20 07:48:15;;;;;;;;;;;1.90;99.90;;;;;;5065891;28;19948;-69
2022/12/20 07:50:42;;;;;;;;;;;1.90;99.90;;;;;;5054356;28;19921;-69
2022/12/20 07:53:10;;;;;;;;;;;1.80;99.90;;;;;;5066255;28;20187;-69
2022/12/20 07:55:41;;;;;;;;;;;1.90;99.90;;;;;;5052593;28;19921;-69
2022/12/20 07:58:09;;;;;;;;;;;1.90;99.90;;;;;;5065741;28;19929;-69
2022/12/20 08:00:36;;;;;;;;;;;2.00;99.90;;;;;;5066285;28;19996;-68
2022/12/20 08:03:05;;;;;;;;;;;2.00;99.90;;;;;;5066279;28;19921;-69
2022/12/20 08:05:32;;;;;;;;;;;2.00;99.90;;;;;;5056823;28;19989;-69
2022/12/20 08:07:59;;;;;;;;;;;2.00;99.90;;;;;;5044935;28;20255;-69
2022/12/20 08:10:28;;;;;;;;;;;2.00;99.90;;;;;;5045883;28;19988;-69
2022/12/20 08:12:55;;;;;;;;;;;2.00;99.90;;;;;;5046150;28;19924;-69
2022/12/20 08:15:22;;;;;;;;;;;2.10;99.90;;;;;;5045704;28;19996;-69
2022/12/20 08:17:49;;;;;;;;;;;2.10;99.90;;;;;;5044966;28;20262;-68
2022/12/20 08:20:16;;;;;;;;;;;2.10;99.90;;;;;;5046101;28;20165;-69
2022/12/20 08:22:43;;;;;;;;;;;2.20;99.90;;;;;;5045908;28;19929;-68
2022/12/20 08:25:10;;;;;;;;;;;2.20;99.90;;;;;;5046029;28;19921;-69
2022/12/20 08:27:38;;;;;;;;;;;2.20;99.90;;;;;;5044998;28;19944;-69
2022/12/20 08:30:06;;;;;;;;;;;2.20;99.90;;;;;;5045826;28;19992;-68
2022/12/20 08:32:33;;;;;;;;;;;2.20;99.90;;;;;;5045875;28;19988;-68
2022/12/20 08:34:59;;;;;;;;;;;2.20;99.90;;;;;;5063519;28;20176;-68
2022/12/20 08:37:27;;;;;;;;;;;2.30;99.90;;;;;;5063971;28;20089;-68
2022/12/20 08:39:54;;;;;;;;;;;2.30;99.90;;;;;;5056644;28;20116;-68
2022/12/20 08:42:21;;;;;;;;;;;2.30;99.90;;;;;;5056227;28;20300;-68
2022/12/20 08:44:49;;;;;;;;;;;2.30;99.90;;;;;;5065480;28;19924;-69
2022/12/20 08:47:15;;;;;;;;;;;2.40;99.90;;;;;;5064620;28;20216;-69
2022/12/20 08:49:42;;;;;;;;;;;2.50;99.90;;;;;;5065417;28;19927;-69
2022/12/20 08:52:08;;;;;;;;;;;2.50;99.90;;;;;;5065486;28;20247;-68
2022/12/20 08:54:35;;;;;;;;;;;2.60;99.90;;;;;;5064927;28;19952;-69
2022/12/20 08:57:02;;;;;;;;;;;2.70;99.90;;;;;;5064206;28;19996;-69
2022/12/20 08:59:28;;;;;;;;;;;2.80;99.90;;;;;;5065172;28;20119;-69
2022/12/20 09:01:56;;;;;;;;;;;2.80;99.90;;;;;;5065272;28;19920;-69
2022/12/20 09:04:23;;;;;;;;;;;2.90;99.90;;;;;;5065197;28;19936;-68
2022/12/20 09:06:50;;;;;;;;;;;3.00;99.90;;;;;;5064435;28;19952;-68
2022/12/20 09:09:16;;;;;;;;;;;3.00;99.90;;;;;;5064670;28;19921;-68
2022/12/20 09:11:43;;;;;;;;;;;3.10;99.90;;;;;;5062230;28;20291;-68
2022/12/20 09:14:10;;;;;;;;;;;3.20;99.90;;;;;;5067048;28;19963;-69
2022/12/20 09:16:36;;;;;;;;;;;3.20;99.90;;;;;;5063619;28;19927;-69
2022/12/20 09:19:05;;;;;;;;;;;3.30;99.90;;;;;;5064457;28;19940;-69
2022/12/20 09:21:31;;;;;;;;;;;3.30;99.90;;;;;;5063995;28;20307;-68
2022/12/20 09:23:58;;;;;;;;;;;3.30;99.90;;;;;;5063977;28;19927;-68
2022/12/20 09:26:25;;;;;;;;;;;3.40;99.90;;;;;;5064074;28;19996;-68
2022/12/20 09:28:52;;;;;;;;;;;3.40;99.90;;;;;;5063780;28;19983;-69
2022/12/20 09:31:20;;;;;;;;;;;3.40;99.90;;;;;;5064679;28;19920;-69
2022/12/20 09:33:46;;;;;;;;;;;3.30;99.90;;;;;;5064131;28;20068;-69
2022/12/20 09:36:16;;;;;;;;;;;3.40;99.90;;;;;;5063109;28;19924;-68
2022/12/20 09:38:42;;;;;;;;;;;3.40;99.90;;;;;;5053213;28;19992;-69
2022/12/20 09:41:17;;;;;;;;;;;3.40;99.90;;;;;;5064302;28;19979;-69
2022/12/20 09:43:44;;;;;;;;;;;3.50;99.90;;;;;;5063671;28;19984;-69
2022/12/20 09:46:13;;;;;;;;;;;3.50;99.90;;;;;;5063477;28;19943;-69
2022/12/20 09:48:40;;;;;;;;;;;3.50;99.90;;;;;;5063667;28;19921;-69
2022/12/20 09:51:10;;;;;;;;;;;3.50;99.90;;;;;;5053774;28;19982;-69
2022/12/20 09:53:44;;;;;;;;;;;3.60;99.90;;;;;;5055169;28;19921;-68
2022/12/20 09:56:13;;;;;;;;;;;3.50;99.90;;;;;;5053861;28;19960;-68
2022/12/20 09:58:47;;;;;;;;;;;3.60;99.90;;;;;;5047959;28;19946;-68
2022/12/20 10:01:16;;;;;;;;;;;3.60;99.90;;;;;;5064142;28;19980;-71
2022/12/20 10:03:42;;;;;;;;;;;3.70;99.90;;;;;;5063476;28;20216;-69
2022/12/20 10:06:13;;;;;;;;;;;3.80;99.90;;;;;;5063136;28;19921;-68
2022/12/20 10:08:46;;;;;;;;;;;3.80;99.90;;;;;;5063621;28;19929;-68
2022/12/20 10:11:32;;;;;;;;;;;3.80;99.90;;;;;;5063822;28;19928;-68
2022/12/20 10:14:02;;;;;;;;;;;3.90;99.90;;;;;;5063554;28;20180;-69
2022/12/20 10:16:35;;;;;;;;;;;3.90;99.90;;;;;;5062823;28;19921;-68
2022/12/20 10:19:08;;;;;;;;;;;4.00;99.90;;;;;;5062890;28;19988;-68
2022/12/20 10:21:40;;;;;;;;;;;4.00;99.90;;;;;;5063494;28;19927;-68
2022/12/20 10:24:12;;;;;;;;;;;4.00;99.90;;;;;;5046734;28;19970;-68
2022/12/20 10:26:39;;;;;;;;;;;4.00;99.90;;;;;;5062959;28;19921;-68
2022/12/20 10:29:05;;;;;;;;;;;4.10;99.90;;;;;;5062614;28;20212;-68
2022/12/20 10:31:32;;;;;;;;;;;4.10;99.90;;;;;;5063690;28;19921;-68
2022/12/20 10:33:59;;;;;;;;;;;4.10;99.90;;;;;;5062810;28;20228;-68
2022/12/20 10:36:27;;;;;;;;;;;4.10;99.90;;;;;;5062600;28;19956;-68
2022/12/20 10:38:54;;;;;;;;;;;4.10;99.90;;;;;;5063036;28;19983;-68
2022/12/20 10:41:24;;;;;;;;;;;4.10;99.90;;;;;;5062886;28;19920;-68
2022/12/20 10:43:53;;;;;;;;;;;4.10;99.90;;;;;;5063512;28;19984;-68
2022/12/20 10:46:20;;;;;;;;;;;4.20;99.90;;;;;;5062106;28;19921;-68
2022/12/20 10:48:48;;;;;;;;;;;4.20;99.90;;;;;;5063262;28;20155;-69
2022/12/20 10:51:15;;;;;;;;;;;4.30;99.90;;;;;;5062608;28;19984;-69
2022/12/20 10:53:53;;;;;;;;;;;4.30;99.90;;;;;;5063186;28;19988;-69
2022/12/20 10:56:21;;;;;;;;;;;4.30;99.90;;;;;;5062161;28;20004;-68
2022/12/20 10:58:56;;;;;;;;;;;4.30;99.90;;;;;;5062680;28;19995;-68
2022/12/20 11:01:24;;;;;;;;;;;4.30;99.90;;;;;;5062910;28;19920;-68
2022/12/20 11:03:53;;;;;;;;;;;4.40;99.90;;;;;;5063072;28;19984;-68
2022/12/20 11:06:21;;;;;;;;;;;4.30;99.90;;;;;;5062084;28;19962;-68
2022/12/20 11:08:48;;;;;;;;;;;4.20;99.90;;;;;;5063716;28;19921;-69
2022/12/20 11:11:16;;;;;;;;;;;4.30;99.90;;;;;;5060073;28;19921;-68
2022/12/20 11:13:49;;;;;;;;;;;4.30;99.90;;;;;;5063189;28;19956;-68
2022/12/20 11:16:25;;;;;;;;;;;4.40;99.90;;;;;;5062034;28;20097;-68
2022/12/20 11:18:56;;;;;;;;;;;4.40;99.90;;;;;;5065475;28;19967;-68
2022/12/20 11:21:26;;;;;;;;;;;4.50;99.90;;;;;;5067361;28;19958;-68
2022/12/20 11:23:57;;;;;;;;;;;4.50;99.90;;;;;;5067468;28;19987;-68
2022/12/20 11:26:30;;;;;;;;;;;4.40;99.90;;;;;;5065855;28;19928;-69
2022/12/20 11:29:03;;;;;;;;;;;4.40;99.90;;;;;;5066921;28;19921;-69
2022/12/20 11:31:40;;;;;;;;;;;4.40;99.90;;;;;;5067179;28;19925;-68
2022/12/20 11:34:14;;;;;;;;;;;4.40;99.90;;;;;;5065305;28;20116;-68
2022/12/20 11:36:49;;;;;;;;;;;4.40;99.90;;;;;;5066240;28;19989;-68
2022/12/20 11:39:21;;;;;;;;;;;4.40;99.90;;;;;;5066186;28;19993;-68
2022/12/20 11:41:55;;;;;;;;;;;4.50;99.90;;;;;;5066438;28;19927;-69
2022/12/20 11:44:25;;;;;;;;;;;4.60;99.90;;;;;;5066339;28;20271;-69
2022/12/20 11:47:00;;;;;;;;;;;4.60;99.90;;;;;;5064166;28;20003;-69
2022/12/20 11:49:36;;;;;;;;;;;4.60;99.90;;;;;;5046473;28;20169;-68
2022/12/20 11:52:05;;;;;;;;;;;4.60;99.90;;;;;;5062415;28;20296;-68
2022/12/20 11:54:34;;;;;;;;;;;4.70;99.90;;;;;;5065261;28;19970;-68
2022/12/20 11:57:02;;;;;;;;;;;4.70;99.90;;;;;;5056573;28;19995;-69
2022/12/20 11:59:33;;;;;;;;;;;4.80;99.90;;;;;;5059445;28;19999;-69
2022/12/20 12:02:04;;;;;;;;;;;4.80;99.90;;;;;;5066233;28;19982;-68
2022/12/20 12:04:33;;;;;;;;;;;4.90;99.90;;;;;;5066053;28;20267;-68
2022/12/20 12:07:02;;;;;;;;;;;4.80;99.90;;;;;;5065578;28;19959;-68
2022/12/20 12:09:32;;;;;;;;;;;4.90;99.90;;;;;;5064365;28;19943;-68
2022/12/20 12:12:01;;;;;;;;;;;4.90;99.90;;;;;;5065638;28;19948;-69
2022/12/20 12:14:31;;;;;;;;;;;4.90;99.90;;;;;;5064853;28;20090;-68
2022/12/20 12:16:59;;;;;;;;;;;4.90;99.90;;;;;;5063989;28;19988;-69
2022/12/20 12:19:29;;;;;;;;;;;4.90;99.90;;;;;;5064038;28;19943;-68
2022/12/20 12:22:01;;;;;;;;;;;4.90;99.90;;;;;;5061144;28;19921;-68
2022/12/20 12:24:31;;;;;;;;;;;4.90;99.90;;;;;;5065701;28;19921;-69
2022/12/20 12:26:58;;;;;;;;;;;4.90;99.90;;;;;;5065152;28;20165;-69
2022/12/20 12:29:25;;;;;;;;;;;4.90;99.90;;;;;;5064845;28;20282;-68
2022/12/20 12:31:55;;;;;;;;;;;4.90;99.90;;;;;;5064959;28;19974;-69
2022/12/20 12:34:29;;;;;;;;;;;5.00;99.90;;;;;;5065667;28;19920;-69
2022/12/20 12:37:14;;;;;;;;;;;5.10;99.90;;;;;;5065035;28;19993;-69
2022/12/20 12:39:58;;;;;;;;;;;5.10;99.90;;;;;;5045340;28;20292;-68
2022/12/20 12:42:40;;;;;;;;;;;5.10;99.90;;;;;;5045536;28;20235;-68
2022/12/20 12:45:07;;;;;;;;;;;5.00;99.90;;;;;;5045359;28;20160;-69
2022/12/20 12:47:36;;;;;;;;;;;4.90;99.90;;;;;;5048000;28;19952;-69
2022/12/20 12:50:04;;;;;;;;;;;4.90;99.90;;;;;;5058673;28;19921;-68
2022/12/20 12:52:42;;;;;;;;;;;4.90;99.90;;;;;;5063272;28;19927;-68
2022/12/20 12:55:28;;;;;;;;;;;5.00;99.90;;;;;;5065328;28;20205;-68
2022/12/20 12:57:55;;;;;;;;;;;5.00;99.90;;;;;;5064594;28;19927;-68
2022/12/20 13:00:36;;;;;;;;;;;4.90;99.90;;;;;;5065029;28;19948;-68
2022/12/20 13:03:05;;;;;;;;;;;4.90;99.90;;;;;;5064929;28;19992;-68
2022/12/20 13:05:34;;;;;;;;;;;4.90;99.90;;;;;;5065250;28;20167;-68
2022/12/20 13:08:03;;;;;;;;;;;4.80;99.90;;;;;;5064177;28;19963;-69
2022/12/20 13:10:53;;;;;;;;;;;4.80;99.90;;;;;;5064684;28;19925;-68
2022/12/20 13:13:21;;;;;;;;;;;4.80;99.90;;;;;;5041729;28;20147;-68
2022/12/20 13:15:52;;;;;;;;;;;4.80;99.90;;;;;;5062580;28;19928;-68
2022/12/20 13:18:23;;;;;;;;;;;4.80;99.90;;;;;;5050222;28;19928;-68
2022/12/20 13:21:04;;;;;;;;;;;4.80;99.90;;;;;;5064929;28;19984;-68
2022/12/20 13:23:32;;;;;;;;;;;4.70;99.90;;;;;;5062944;28;19989;-68
2022/12/20 13:25:59;;;;;;;;;;;4.70;99.90;;;;;;5056801;28;19988;-69
2022/12/20 13:28:44;;;;;;;;;;;4.70;99.90;;;;;;5060913;28;20217;-69
2022/12/20 13:31:35;;;;;;;;;;;4.70;99.90;;;;;;5063435;28;19988;-68
2022/12/20 13:34:02;;;;;;;;;;;4.70;99.90;;;;;;5049011;28;19920;-68
2022/12/20 13:36:32;;;;;;;;;;;4.70;99.90;;;;;;5063067;28;20181;-68
2022/12/20 13:39:01;;;;;;;;;;;4.70;99.90;;;;;;5063704;28;19921;-68
2022/12/20 13:41:33;;;;;;;;;;;4.70;99.90;;;;;;5063992;28;20112;-67
2022/12/20 13:44:03;;;;;;;;;;;4.70;99.90;;;;;;5064322;28;19921;-68
2022/12/20 13:46:40;;;;;;;;;;;4.70;99.90;;;;;;5061515;28;19984;-70
2022/12/20 13:49:10;;;;;;;;;;;4.70;99.90;;;;;;5064184;28;20108;-68
2022/12/20 13:51:37;;;;;;;;;;;4.70;99.90;;;;;;5063898;28;19984;-68
2022/12/20 13:54:06;;;;;;;;;;;4.70;99.90;;;;;;5053746;28;20116;-68
2022/12/20 13:56:36;;;;;;;;;;;4.60;99.90;;;;;;5049214;28;19927;-68
2022/12/20 13:59:12;;;;;;;;;;;4.60;99.90;;;;;;5059333;28;20046;-68
2022/12/20 14:01:46;;;;;;;;;;;4.60;99.90;;;;;;5061029;28;19952;-68
2022/12/20 14:04:13;;;;;;;;;;;4.60;99.90;;;;;;5064033;28;19949;-68
2022/12/20 14:06:39;;;;;;;;;;;4.60;99.90;;;;;;5063143;28;20179;-68
2022/12/20 14:09:22;;;;;;;;;;;4.60;99.90;;;;;;5062495;28;20225;-68
2022/12/20 14:11:50;;;;;;;;;;;4.60;99.90;;;;;;5043429;28;19988;-68
2022/12/20 14:14:16;;;;;;;;;;;4.60;99.90;;;;;;5043788;28;19921;-68
2022/12/20 14:16:43;;;;;;;;;;;4.60;99.90;;;;;;5042997;28;20146;-68
2022/12/20 14:19:13;;;;;;;;;;;4.50;99.90;;;;;;5043173;28;19964;-68
2022/12/20 14:21:43;;;;;;;;;;;4.50;99.90;;;;;;5053384;28;20390;-68
2022/12/20 14:24:14;;;;;;;;;;;4.50;99.90;;;;;;5063590;28;19984;-70
2022/12/20 14:26:43;;;;;;;;;;;4.60;99.90;;;;;;5063039;28;19921;-67
2022/12/20 14:29:12;;;;;;;;;;;4.50;99.90;;;;;;5062935;28;20205;-68
2022/12/20 14:31:40;;;;;;;;;;;4.50;99.90;;;;;;5063292;28;19984;-68
2022/12/20 14:34:12;;;;;;;;;;;4.50;99.90;;;;;;5063199;28;20201;-68
2022/12/20 14:36:39;;;;;;;;;;;4.50;99.90;;;;;;5062840;28;19920;-68
2022/12/20 14:39:20;;;;;;;;;;;4.40;99.90;;;;;;5063254;28;19991;-69
2022/12/20 14:41:47;;;;;;;;;;;4.40;99.90;;;;;;5063508;28;19989;-69
2022/12/20 14:44:16;;;;;;;;;;;4.50;99.90;;;;;;5060137;28;19956;-68
2022/12/20 14:46:47;;;;;;;;;;;4.50;99.90;;;;;;5061963;28;20224;-67
2022/12/20 14:49:17;;;;;;;;;;;4.50;99.90;;;;;;5062779;28;19920;-68